Agency, Missouri
Current Conditions -  °F | °C
As of 5:53 AM on Sunday 21 Dec 2014 (Local Time) from KSTJ Reporting Station
Overcast Overcast  
Wind Chill: 31°   Ceiling: 2000
Heat Index: 37°   Visibility: 8mi
Dew Point: 34°   Wind: 8mph
Humidity: 89%   Direction: 180°S
Pressure: 30.04"   Gusts: NA
Location:  39.64°N, 94.74°W
Report Text: KSTJ 211153Z AUTO 18007KT 8SM OVC020 03/01 A3004 RMK AO2 SLP177 T00280011 10028 20000 56016
Loading
Personal Weather Stations






























Interactive Weather Map New forecast layout! Learn more

10-Day Weather Forecast

Advertisements
Track Severe Weather on mobile